Time;durP1;ratioP1;P1;durP2;ratioP2;P2;SDS_P1;SDS_P2;PMS_P1;PMS_P2;Temp;Humidity;BMP_temperature;BMP_pressure;BME280_temperature;BME280_humidity;BME280_pressure;Samples;Min_cycle;Max_cycle;Signal;HPM_P1;HPM_P2
2022/01/21 00:00:10;;;;;;;11.43;1.40;;;3.60;99.90;;;;;;5054022;28;20048;-89
2022/01/21 00:02:36;;;;;;;19.00;1.77;;;3.80;99.90;;;;;;5071803;28;20037;-90
2022/01/21 00:05:02;;;;;;;25.40;2.10;;;3.90;99.90;;;;;;5082057;28;20074;-90
2022/01/21 00:07:28;;;;;;;8.13;1.10;;;3.80;99.90;;;;;;5062344;28;20048;-86
2022/01/21 00:09:54;;;;;;;10.75;1.42;;;3.90;99.90;;;;;;5053335;28;20041;-89
2022/01/21 00:12:20;;;;;;;8.02;0.80;;;3.80;99.90;;;;;;5061055;28;20025;-85
2022/01/21 00:14:46;;;;;;;4.43;0.60;;;3.70;99.90;;;;;;5055840;28;20151;-85
2022/01/21 00:17:12;;;;;;;2.65;0.40;;;3.70;99.90;;;;;;5067714;28;20041;-86
2022/01/21 00:19:41;;;;;;;6.63;0.47;;;3.50;99.90;;;;;;5055388;28;20042;-88
2022/01/21 00:30:23;;;;;;;4.00;1.05;;;3.30;99.90;;;;;;5068144;28;20055;-85
2022/01/21 00:32:49;;;;;;;10.02;0.90;;;3.30;99.90;;;;;;5036191;28;20119;-82
2022/01/21 00:35:17;;;;;;;3.83;0.40;;;3.80;99.90;;;;;;5036917;28;20170;-88
2022/01/21 00:37:43;;;;;;;9.55;0.63;;;3.10;99.90;;;;;;5055494;28;20089;-89
2022/01/21 00:40:12;;;;;;;6.57;0.50;;;3.10;99.90;;;;;;5052564;28;20056;-89
2022/01/21 00:45:08;;;;;;;14.73;1.05;;;2.90;99.90;;;;;;5054189;28;20055;-86
2022/01/21 00:47:34;;;;;;;3.28;0.50;;;2.80;99.90;;;;;;5060454;28;20505;-87
2022/01/21 00:50:00;;;;;;;7.82;0.80;;;2.70;99.90;;;;;;5072730;28;20072;-88
2022/01/21 00:52:26;;;;;;;4.05;0.68;;;2.70;99.90;;;;;;5072204;28;20117;-88
2022/01/21 00:54:52;;;;;;;7.53;0.45;;;2.70;99.90;;;;;;5070363;28;20088;-89
2022/01/21 00:57:17;;;;;;;6.20;0.68;;;2.70;99.90;;;;;;5050892;28;20532;-87
2022/01/21 00:59:43;;;;;;;5.90;0.40;;;2.60;99.90;;;;;;5044977;28;20048;-89
2022/01/21 01:02:08;;;;;;;9.13;0.80;;;2.60;99.90;;;;;;5063096;28;20901;-89
2022/01/21 01:04:34;;;;;;;11.38;0.90;;;2.60;99.90;;;;;;5053429;28;20079;-86
2022/01/21 01:07:00;;;;;;;10.88;0.88;;;2.60;99.90;;;;;;5047270;28;20045;-87
2022/01/21 01:09:25;;;;;;;8.18;0.70;;;2.60;99.90;;;;;;5063421;28;20427;-87
2022/01/21 01:19:58;;;;;;;8.32;0.70;;;2.60;99.90;;;;;;5045629;28;20041;-87
2022/01/21 01:22:32;;;;;;;7.45;0.85;;;2.60;99.90;;;;;;5071335;28;20048;-87
2022/01/21 01:27:43;;;;;;;9.10;0.68;;;3.30;99.90;;;;;;5046349;28;20501;-86
2022/01/21 01:30:20;;;;;;;1.75;0.43;;;2.70;99.90;;;;;;5049650;28;20048;-85
2022/01/21 01:32:48;;;;;;;4.88;0.55;;;2.60;99.90;;;;;;5067988;28;20044;-88
2022/01/21 01:35:16;;;;;;;2.17;0.85;;;2.50;99.90;;;;;;5057859;28;20068;-88
2022/01/21 01:40:28;;;;;;;5.15;0.40;;;2.50;99.90;;;;;;5060440;28;20170;-89
2022/01/21 01:51:18;;;;;;;10.45;0.90;;;2.40;99.90;;;;;;4996224;28;20046;-86
2022/01/21 01:53:49;;;;;;;5.45;1.10;;;2.70;99.90;;;;;;5005824;28;20121;-83
2022/01/21 01:56:17;;;;;;;5.22;0.68;;;2.70;99.90;;;;;;5012419;28;20054;-84
2022/01/21 01:58:43;;;;;;;4.53;0.70;;;2.60;99.90;;;;;;5007383;28;20045;-88
2022/01/21 02:01:09;;;;;;;1.80;0.30;;;2.50;99.90;;;;;;5013817;28;20041;-88
2022/01/21 02:03:36;;;;;;;5.25;0.50;;;2.40;99.90;;;;;;4993798;28;20050;-89
2022/01/21 02:06:02;;;;;;;1.95;0.63;;;2.40;99.90;;;;;;5011026;28;20057;-90
2022/01/21 02:08:29;;;;;;;3.85;0.40;;;2.30;99.90;;;;;;4997609;28;20140;-90
2022/01/21 02:10:55;;;;;;;3.80;0.30;;;2.40;99.90;;;;;;5013416;28;20038;-87
2022/01/21 02:13:24;;;;;;;2.50;0.25;;;2.20;99.90;;;;;;5012612;28;20053;-89
2022/01/21 02:16:08;;;;;;;3.10;0.47;;;2.20;99.90;;;;;;5013765;28;20088;-87
2022/01/21 02:21:32;;;;;;;4.15;0.30;;;2.40;99.90;;;;;;5022981;28;20052;-89
2022/01/21 02:24:00;;;;;;;2.35;0.52;;;2.40;99.90;;;;;;5067118;28;20504;-90
2022/01/21 02:26:27;;;;;;;6.50;1.55;;;2.30;99.90;;;;;;5066184;28;20093;-87
2022/01/21 02:28:53;;;;;;;3.05;0.35;;;2.20;99.90;;;;;;5074164;28;20051;-88
2022/01/21 02:31:19;;;;;;;2.13;0.20;;;2.10;99.90;;;;;;5065826;28;20056;-89
2022/01/21 02:33:45;;;;;;;1.33;0.30;;;2.10;99.90;;;;;;5074469;28;20040;-89
2022/01/21 02:36:11;;;;;;;4.40;0.28;;;2.00;99.90;;;;;;5055621;28;20041;-89
2022/01/21 02:38:37;;;;;;;3.35;0.30;;;2.00;99.90;;;;;;5073886;28;20044;-88
2022/01/21 02:41:02;;;;;;;8.57;0.47;;;2.00;99.90;;;;;;5074239;28;20066;-89
2022/01/21 02:43:28;;;;;;;1.35;0.30;;;2.10;99.90;;;;;;5073053;28;20044;-89
2022/01/21 02:45:54;;;;;;;4.60;0.70;;;2.00;99.90;;;;;;5052950;28;20045;-89
2022/01/21 02:48:21;;;;;;;5.78;0.70;;;2.00;99.90;;;;;;5072379;28;20036;-83
2022/01/21 02:50:47;;;;;;;5.28;1.00;;;2.10;99.90;;;;;;5052709;28;20043;-86
2022/01/21 02:55:39;;;;;;;7.63;0.90;;;2.30;99.90;;;;;;5074038;28;20072;-88
2022/01/21 02:58:04;;;;;;;5.75;0.80;;;2.40;99.90;;;;;;5073415;28;20044;-89
2022/01/21 03:00:30;;;;;;;10.57;0.80;;;2.70;99.90;;;;;;5072771;28;20045;-89
2022/01/21 03:02:56;;;;;;;8.20;0.90;;;2.50;99.90;;;;;;5072971;28;20476;-90
2022/01/21 03:05:22;;;;;;;6.13;0.60;;;2.60;99.90;;;;;;5072605;28;20235;-86
2022/01/21 03:07:49;;;;;;;5.78;0.85;;;2.50;99.90;;;;;;5073901;28;20423;-88
2022/01/21 03:10:15;;;;;;;7.55;0.52;;;2.50;99.90;;;;;;5073547;28;20158;-87
2022/01/21 03:12:41;;;;;;;2.67;1.40;;;3.30;99.90;;;;;;5073192;28;20037;-88
2022/01/21 03:15:07;;;;;;;5.90;0.77;;;2.60;99.90;;;;;;5073458;28;20048;-86
2022/01/21 03:17:34;;;;;;;9.10;0.77;;;2.70;99.90;;;;;;5073133;28;20120;-87
2022/01/21 03:20:00;;;;;;;1.85;0.40;;;2.90;99.90;;;;;;5073393;28;20421;-89
2022/01/21 03:22:26;;;;;;;6.22;0.65;;;2.90;99.90;;;;;;5072166;28;20480;-89
2022/01/21 03:24:51;;;;;;;3.78;0.60;;;3.40;99.90;;;;;;5052689;28;20095;-87
2022/01/21 03:27:17;;;;;;;3.50;0.88;;;3.20;99.90;;;;;;5069550;28;20064;-89
2022/01/21 03:29:44;;;;;;;3.15;0.43;;;3.20;99.90;;;;;;5072490;28;20089;-90
2022/01/21 03:32:09;;;;;;;4.60;0.47;;;3.00;99.90;;;;;;5072059;28;20052;-88
2022/01/21 03:34:35;;;;;;;4.22;0.43;;;3.90;99.90;;;;;;5072947;28;20087;-88
2022/01/21 03:37:01;;;;;;;4.60;0.40;;;2.90;99.90;;;;;;5073092;28;20470;-89
2022/01/21 03:39:27;;;;;;;2.50;0.40;;;2.80;99.90;;;;;;5052500;28;20033;-88
2022/01/21 03:41:52;;;;;;;6.20;0.88;;;3.40;99.90;;;;;;5072294;28;20056;-86
2022/01/21 03:44:18;;;;;;;7.03;0.65;;;2.80;99.90;;;;;;5072848;28;20051;-85
2022/01/21 03:46:44;;;;;;;8.57;0.63;;;2.90;99.90;;;;;;5071202;28;20053;-90
2022/01/21 03:49:09;;;;;;;5.45;0.45;;;3.00;99.90;;;;;;5073021;28;20044;-87
2022/01/21 03:51:35;;;;;;;6.05;0.40;;;2.90;99.90;;;;;;5071240;28;20036;-88
2022/01/21 03:54:02;;;;;;;4.68;0.60;;;2.90;99.90;;;;;;5072663;28;20040;-87
2022/01/21 03:56:27;;;;;;;5.78;0.75;;;2.90;99.90;;;;;;5072654;28;20412;-89
2022/01/21 03:58:53;;;;;;;5.10;0.98;;;2.90;99.90;;;;;;5071466;28;20043;-84
2022/01/21 04:01:19;;;;;;;7.07;0.60;;;2.90;99.90;;;;;;5072272;28;20385;-87
2022/01/21 04:03:45;;;;;;;4.43;0.60;;;2.80;99.90;;;;;;5071604;28;20040;-87
2022/01/21 04:06:11;;;;;;;5.80;0.45;;;2.80;99.90;;;;;;5073151;28;20040;-89
2022/01/21 04:08:36;;;;;;;2.17;0.50;;;2.70;99.90;;;;;;5062074;28;20079;-89
2022/01/21 04:11:02;;;;;;;3.75;0.40;;;2.70;99.90;;;;;;5070792;28;20052;-89
2022/01/21 04:13:28;;;;;;;1.55;0.30;;;2.60;99.90;;;;;;5047018;28;20055;-90
2022/01/21 04:15:56;;;;;;;2.03;0.30;;;2.50;99.90;;;;;;5055216;28;20037;-89
2022/01/21 04:18:23;;;;;;;2.60;0.30;;;2.50;99.90;;;;;;5063872;28;20047;-89
2022/01/21 04:20:49;;;;;;;1.83;0.40;;;2.60;99.90;;;;;;5069272;28;20049;-89
2022/01/21 04:23:17;;;;;;;0.98;0.20;;;2.30;99.90;;;;;;5057397;28;20095;-90
2022/01/21 04:25:43;;;;;;;5.55;0.40;;;2.20;99.90;;;;;;5068574;28;20048;-88
2022/01/21 04:28:09;;;;;;;1.83;0.30;;;2.20;99.90;;;;;;5071662;28;20037;-89
2022/01/21 04:30:35;;;;;;;2.22;0.32;;;2.10;99.90;;;;;;5054531;28;20040;-90
2022/01/21 04:33:01;;;;;;;1.27;0.25;;;2.00;99.90;;;;;;5068466;28;20076;-89
2022/01/21 04:35:27;;;;;;;0.65;0.32;;;2.00;99.90;;;;;;5044211;28;20083;-87
2022/01/21 04:37:56;;;;;;;2.80;0.40;;;1.90;99.90;;;;;;5069675;28;20036;-90
2022/01/21 04:40:27;;;;;;;8.05;0.85;;;1.90;99.90;;;;;;5075481;28;20116;-87
2022/01/21 04:55:43;;;;;;;1.65;0.30;;;1.70;99.90;;;;;;5074433;28;20048;-87
2022/01/21 04:58:08;;;;;;;4.15;0.50;;;1.80;99.90;;;;;;5063502;28;20048;-86
2022/01/21 05:00:34;;;;;;;3.75;0.55;;;1.80;99.90;;;;;;5024211;28;20037;-87
2022/01/21 05:03:00;;;;;;;4.38;0.47;;;2.40;99.90;;;;;;5052421;28;20072;-88
2022/01/21 05:05:26;;;;;;;3.03;0.60;;;1.80;99.90;;;;;;5054516;28;20060;-87
2022/01/21 05:07:53;;;;;;;3.55;0.75;;;1.80;99.90;;;;;;5061111;28;20392;-87
2022/01/21 05:10:18;;;;;;;5.32;1.55;;;1.80;99.90;;;;;;5043028;28;20481;-88
2022/01/21 05:12:44;;;;;;;1.83;0.45;;;1.80;99.90;;;;;;5060424;28;20037;-86
2022/01/21 05:15:17;;;;;;;5.25;0.77;;;1.80;99.90;;;;;;5052269;28;20088;-89
2022/01/21 05:17:48;;;;;;;7.57;0.63;;;2.00;99.90;;;;;;5039352;28;20489;-88
2022/01/21 05:20:14;;;;;;;9.98;0.80;;;2.10;99.90;;;;;;5064199;28;20056;-85
2022/01/21 05:22:40;;;;;;;10.85;0.88;;;2.00;99.90;;;;;;5051375;28;20125;-85
2022/01/21 05:25:07;;;;;;;6.68;0.77;;;2.10;99.90;;;;;;5040946;28;20124;-87
2022/01/21 05:27:33;;;;;;;10.60;0.82;;;2.20;99.90;;;;;;5055889;28;20048;-89
2022/01/21 05:29:58;;;;;;;7.90;1.13;;;2.50;99.90;;;;;;5049836;28;20392;-88
2022/01/21 05:32:24;;;;;;;9.70;1.20;;;3.10;99.90;;;;;;5054116;28;20060;-89
2022/01/21 05:34:50;;;;;;;6.35;0.80;;;2.60;99.90;;;;;;5058932;28;20040;-81
2022/01/21 05:37:15;;;;;;;11.13;2.42;;;2.50;99.90;;;;;;5044390;28;20106;-89
2022/01/21 05:39:41;;;;;;;12.10;1.20;;;2.50;99.90;;;;;;5056862;28;20037;-89
2022/01/21 05:42:07;;;;;;;14.70;1.35;;;2.60;99.90;;;;;;5052850;28;20055;-87
2022/01/21 05:47:01;;;;;;;12.63;1.05;;;2.70;99.90;;;;;;5065799;28;20126;-88
2022/01/21 05:49:29;;;;;;;7.43;1.35;;;2.60;99.90;;;;;;5062578;28;20037;-89
2022/01/21 05:52:04;;;;;;;9.07;1.80;;;2.60;99.90;;;;;;5055991;28;20120;-89
2022/01/21 05:54:31;;;;;;;8.77;0.73;;;3.50;99.90;;;;;;5044164;28;20048;-86
2022/01/21 05:56:57;;;;;;;13.13;1.90;;;2.60;99.90;;;;;;5064496;28;20079;-85
2022/01/21 05:59:24;;;;;;;12.02;0.80;;;2.70;99.90;;;;;;5067968;28;20103;-88
2022/01/21 06:01:51;;;;;;;11.45;0.65;;;2.70;99.90;;;;;;5037925;28;20042;-86
2022/01/21 06:04:17;;;;;;;9.73;0.77;;;2.70;99.90;;;;;;5060255;28;20398;-89
2022/01/21 06:06:42;;;;;;;8.18;0.85;;;2.90;99.90;;;;;;5056702;28;20052;-87
2022/01/21 06:09:08;;;;;;;5.72;0.90;;;2.60;99.90;;;;;;5063577;28;20043;-89
2022/01/21 06:11:34;;;;;;;7.28;0.90;;;2.60;99.90;;;;;;5046821;28;20120;-90
2022/01/21 06:14:01;;;;;;;4.85;0.80;;;2.50;99.90;;;;;;5066344;28;20098;-89
2022/01/21 06:16:27;;;;;;;10.95;1.92;;;2.60;99.90;;;;;;5064617;28;20496;-89
2022/01/21 06:18:53;;;;;;;7.13;1.20;;;2.50;99.90;;;;;;5052853;28;20139;-89
2022/01/21 06:21:19;;;;;;;6.30;0.90;;;2.70;99.90;;;;;;5068005;28;20476;-88
2022/01/21 06:23:45;;;;;;;8.70;1.45;;;2.80;99.90;;;;;;5055926;28;20039;-86
2022/01/21 06:26:11;;;;;;;6.50;1.65;;;2.70;99.90;;;;;;5065883;28;20036;-88
2022/01/21 06:28:36;;;;;;;8.60;1.00;;;2.80;99.90;;;;;;5051448;28;20071;-87
2022/01/21 06:31:02;;;;;;;9.40;1.00;;;2.90;99.90;;;;;;5067935;28;20052;-88
2022/01/21 06:33:28;;;;;;;7.32;1.40;;;3.60;99.90;;;;;;5063093;28;20044;-89
2022/01/21 06:35:54;;;;;;;10.77;0.95;;;2.90;99.90;;;;;;5059953;28;20373;-89
2022/01/21 06:38:21;;;;;;;9.90;1.73;;;3.00;99.90;;;;;;5065215;28;20484;-88
2022/01/21 06:40:47;;;;;;;5.78;0.82;;;3.00;99.90;;;;;;5047737;28;20119;-86
2022/01/21 06:43:13;;;;;;;12.65;0.85;;;3.10;99.90;;;;;;5055298;28;20049;-88
2022/01/21 06:45:40;;;;;;;8.68;0.98;;;3.20;99.90;;;;;;5065493;28;20490;-89
2022/01/21 06:48:06;;;;;;;6.03;0.82;;;3.40;99.90;;;;;;5068094;28;20408;-86
2022/01/21 06:50:35;;;;;;;9.70;0.60;;;3.00;99.90;;;;;;5055712;28;20124;-86
2022/01/21 06:53:00;;;;;;;4.38;0.63;;;2.90;99.90;;;;;;5065867;28;20048;-86
2022/01/21 06:55:26;;;;;;;10.13;0.98;;;3.60;99.90;;;;;;5050882;28;20434;-82
2022/01/21 06:57:52;;;;;;;4.65;0.70;;;2.80;99.90;;;;;;5069219;28;20043;-89
2022/01/21 07:00:19;;;;;;;8.57;1.85;;;3.40;99.90;;;;;;5048235;28;20041;-89
2022/01/21 07:02:47;;;;;;;5.38;0.63;;;2.70;99.90;;;;;;5048092;28;20516;-87
2022/01/21 07:05:13;;;;;;;5.53;1.05;;;2.70;99.90;;;;;;5064636;28;20091;-84
2022/01/21 07:07:39;;;;;;;6.68;0.68;;;2.70;99.90;;;;;;5068857;28;20043;-92
2022/01/21 07:10:06;;;;;;;5.22;0.50;;;2.60;99.90;;;;;;5068966;28;20037;-89
2022/01/21 07:12:35;;;;;;;4.70;0.60;;;2.50;99.90;;;;;;5061924;28;20102;-86
2022/01/21 07:15:01;;;;;;;3.13;0.60;;;2.40;99.90;;;;;;5048131;28;20473;-88
2022/01/21 07:17:27;;;;;;;8.32;0.88;;;2.40;99.90;;;;;;5070562;28;20132;-85
2022/01/21 07:19:52;;;;;;;5.07;0.60;;;2.40;99.90;;;;;;5056032;28;20120;-86
2022/01/21 07:22:18;;;;;;;7.55;0.82;;;2.30;99.90;;;;;;5073508;28;20067;-84
2022/01/21 07:24:44;;;;;;;5.75;0.70;;;2.40;99.90;;;;;;5053974;28;20044;-89
2022/01/21 07:27:10;;;;;;;8.57;0.93;;;3.20;99.90;;;;;;5072488;28;20523;-89
2022/01/21 07:29:36;;;;;;;8.82;1.30;;;2.30;99.90;;;;;;5072523;28;20047;-81
2022/01/21 07:32:02;;;;;;;3.28;0.40;;;2.20;99.90;;;;;;5073195;28;20245;-82
2022/01/21 07:34:28;;;;;;;3.15;0.50;;;2.20;99.90;;;;;;5073223;28;20040;-81
2022/01/21 07:36:55;;;;;;;6.90;1.15;;;2.50;99.90;;;;;;5072506;28;20481;-84
2022/01/21 07:39:21;;;;;;;3.28;0.60;;;2.10;99.90;;;;;;5072503;28;20474;-81
2022/01/21 07:41:48;;;;;;;3.75;0.63;;;2.00;99.90;;;;;;5072264;28;20111;-81
2022/01/21 07:44:14;;;;;;;3.17;0.57;;;2.00;99.90;;;;;;5073377;28;20123;-84
2022/01/21 07:46:41;;;;;;;1.27;0.50;;;2.50;99.90;;;;;;5054447;28;20433;-80
2022/01/21 07:49:08;;;;;;;2.85;0.63;;;2.60;99.90;;;;;;5072968;28;20060;-81
2022/01/21 07:51:34;;;;;;;6.82;0.65;;;2.70;99.90;;;;;;5054244;28;20051;-82
2022/01/21 07:54:00;;;;;;;3.78;0.68;;;1.80;99.90;;;;;;5072452;28;20106;-81
2022/01/21 07:56:25;;;;;;;3.75;0.65;;;1.80;99.90;;;;;;5054977;28;20123;-81
2022/01/21 07:58:52;;;;;;;3.38;0.60;;;1.70;99.90;;;;;;5069386;28;20045;-80
2022/01/21 08:01:18;;;;;;;4.05;1.00;;;1.70;99.90;;;;;;5053586;28;20176;-81
2022/01/21 08:03:43;;;;;;;5.57;0.50;;;1.60;99.90;;;;;;5069254;28;20135;-82
2022/01/21 08:06:09;;;;;;;2.78;0.40;;;1.70;99.90;;;;;;5053848;28;20043;-82
2022/01/21 08:08:35;;;;;;;6.45;0.68;;;2.40;99.90;;;;;;5072791;28;20044;-82
2022/01/21 08:11:00;;;;;;;2.80;0.50;;;2.10;99.90;;;;;;5054352;28;20041;-81
2022/01/21 08:13:27;;;;;;;5.00;0.70;;;2.20;99.90;;;;;;5068397;28;20401;-81
2022/01/21 08:15:54;;;;;;;6.00;0.52;;;1.60;99.90;;;;;;5068923;28;20049;-84
2022/01/21 08:18:19;;;;;;;4.63;0.50;;;2.20;99.90;;;;;;5072332;28;20049;-83
2022/01/21 08:20:45;;;;;;;1.73;0.60;;;1.60;99.90;;;;;;5072042;28;20036;-84
2022/01/21 08:23:12;;;;;;;4.13;0.43;;;2.20;99.90;;;;;;5061551;28;20545;-83
2022/01/21 08:25:38;;;;;;;3.40;0.40;;;2.10;99.90;;;;;;5066627;28;20080;-85
2022/01/21 08:28:04;;;;;;;2.83;0.50;;;1.50;99.90;;;;;;5046989;28;20051;-86
2022/01/21 08:30:30;;;;;;;3.63;0.40;;;1.80;99.90;;;;;;5071621;28;20040;-86
2022/01/21 08:32:56;;;;;;;1.70;0.50;;;1.60;99.90;;;;;;5071266;28;20140;-86
2022/01/21 08:35:21;;;;;;;2.63;0.80;;;3.20;99.90;;;;;;5053161;28;20055;-82
2022/01/21 08:37:47;;;;;;;4.25;0.60;;;1.70;99.90;;;;;;5064149;28;20036;-86
2022/01/21 08:40:13;;;;;;;3.95;0.50;;;0.40;99.90;;;;;;5070028;28;20410;-85
2022/01/21 08:42:39;;;;;;;0.73;0.40;;;1.60;99.90;;;;;;5071684;28;20468;-86
2022/01/21 08:45:06;;;;;;;1.20;0.70;;;2.30;99.90;;;;;;5031263;28;20123;-87
2022/01/21 08:47:32;;;;;;;4.43;0.47;;;1.80;99.90;;;;;;5051004;28;20123;-85
2022/01/21 08:50:01;;;;;;;3.30;0.43;;;2.50;99.90;;;;;;5067578;28;20075;-84
2022/01/21 08:52:29;;;;;;;4.47;0.40;;;2.60;99.90;;;;;;5054384;28;20127;-84
2022/01/21 08:54:55;;;;;;;3.60;0.82;;;2.80;99.90;;;;;;5070874;28;20041;-84
2022/01/21 08:57:20;;;;;;;7.00;0.60;;;2.30;99.90;;;;;;5052047;28;20051;-84
2022/01/21 08:59:48;;;;;;;4.78;0.50;;;2.10;99.90;;;;;;5050680;28;20107;-86
2022/01/21 09:02:14;;;;;;;2.10;0.40;;;1.20;99.90;;;;;;5052200;28;20049;-85
2022/01/21 09:04:40;;;;;;;1.30;0.52;;;2.90;99.90;;;;;;5050648;28;20059;-85
2022/01/21 09:07:06;;;;;;;3.42;0.50;;;1.50;99.90;;;;;;5052470;28;20052;-86
2022/01/21 09:09:32;;;;;;;2.47;0.60;;;3.10;99.90;;;;;;5054297;28;20054;-85
2022/01/21 09:12:01;;;;;;;2.92;0.45;;;2.40;99.90;;;;;;5071699;28;20512;-85
2022/01/21 09:14:31;;;;;;;3.35;0.90;;;2.40;99.90;;;;;;5071069;28;20053;-86
2022/01/21 09:16:57;;;;;;;3.83;0.50;;;3.00;99.90;;;;;;5071408;28;20033;-82
2022/01/21 09:19:27;;;;;;;3.92;0.60;;;2.40;99.90;;;;;;5070573;28;20033;-89
2022/01/21 09:21:54;;;;;;;3.47;0.45;;;2.50;99.90;;;;;;5046081;28;20045;-84
2022/01/21 09:24:20;;;;;;;3.97;0.60;;;3.40;99.90;;;;;;5052949;28;20055;-85
2022/01/21 09:26:47;;;;;;;2.85;0.40;;;3.50;99.90;;;;;;5071512;28;20040;-85
2022/01/21 09:29:14;;;;;;;2.70;0.40;;;2.00;99.90;;;;;;5050589;28;20052;-83
2022/01/21 09:31:40;;;;;;;5.68;1.10;;;3.30;99.90;;;;;;5050906;28;20366;-84
2022/01/21 09:34:06;;;;;;;7.53;0.73;;;3.50;99.90;;;;;;5066832;28;20113;-86
2022/01/21 09:36:32;;;;;;;13.00;1.60;;;2.90;99.90;;;;;;5070834;28;20080;-85
2022/01/21 09:39:00;;;;;;;10.85;1.75;;;3.40;99.90;;;;;;5070651;28;20163;-86
2022/01/21 09:41:28;;;;;;;10.40;1.13;;;3.80;99.90;;;;;;5053532;28;20041;-85
2022/01/21 09:43:54;;;;;;;11.43;1.85;;;3.60;99.90;;;;;;5070602;28;20043;-86
2022/01/21 09:46:32;;;;;;;6.55;1.10;;;4.20;99.90;;;;;;5050960;28;20048;-86
2022/01/21 09:49:26;;;;;;;11.43;1.77;;;3.00;99.90;;;;;;5053303;28;20036;-85
2022/01/21 09:52:13;;;;;;;8.48;1.27;;;4.60;99.90;;;;;;5053588;28;20048;-87
2022/01/21 09:54:47;;;;;;;13.15;1.00;;;3.90;99.90;;;;;;5082122;28;20053;-85
2022/01/21 09:57:22;;;;;;;9.25;0.95;;;4.90;99.90;;;;;;5074733;28;20110;-85
2022/01/21 09:59:53;;;;;;;11.70;1.45;;;4.20;99.90;;;;;;5077179;28;20040;-86
2022/01/21 10:02:25;;;;;;;10.45;1.02;;;4.30;99.90;;;;;;5074108;28;20040;-87
2022/01/21 10:04:52;;;;;;;6.80;0.90;;;4.70;99.90;;;;;;5067783;28;20068;-85
2022/01/21 10:07:20;;;;;;;18.00;1.35;;;3.80;99.90;;;;;;5075379;28;20044;-85
2022/01/21 10:09:47;;;;;;;19.33;1.48;;;4.80;99.90;;;;;;5074070;28;20041;-85
2022/01/21 10:12:13;;;;;;;6.75;0.73;;;4.60;99.90;;;;;;5074976;28;20123;-87
2022/01/21 10:14:40;;;;;;;13.15;1.25;;;4.90;99.90;;;;;;5074680;28;20093;-89
2022/01/21 10:17:06;;;;;;;10.10;1.17;;;5.40;99.90;;;;;;5039569;28;20048;-89
2022/01/21 10:19:34;;;;;;;5.32;1.10;;;4.80;99.90;;;;;;5055180;28;20243;-87
2022/01/21 10:22:00;;;;;;;5.18;1.08;;;5.40;99.90;;;;;;5052894;28;20080;-87
2022/01/21 10:24:27;;;;;;;11.77;1.00;;;4.80;99.90;;;;;;5057091;28;20090;-89
2022/01/21 10:26:54;;;;;;;15.70;1.90;;;4.90;99.90;;;;;;5076566;28;20052;-93
2022/01/21 10:29:21;;;;;;;4.65;0.70;;;5.10;99.90;;;;;;5074342;28;20480;-89
2022/01/21 10:32:02;;;;;;;12.25;0.80;;;5.80;99.90;;;;;;5056710;28;20086;-86
2022/01/21 10:34:39;;;;;;;16.80;2.55;;;5.90;99.90;;;;;;5050076;28;20102;-86
2022/01/21 10:37:30;;;;;;;7.78;1.25;;;5.20;99.90;;;;;;5054414;28;20089;-86
2022/01/21 10:39:59;;;;;;;6.72;0.93;;;5.30;99.90;;;;;;5071274;28;20044;-90
2022/01/21 10:42:27;;;;;;;9.52;1.42;;;6.00;99.90;;;;;;5067444;28;20468;-87
2022/01/21 10:44:53;;;;;;;3.15;0.50;;;5.40;99.90;;;;;;5056282;28;20052;-86
2022/01/21 10:47:24;;;;;;;5.20;1.20;;;5.60;99.90;;;;;;5073842;28;20052;-88
2022/01/21 10:50:03;;;;;;;11.65;0.73;;;5.80;99.90;;;;;;5074569;28;20040;-88
2022/01/21 10:52:37;;;;;;;11.75;1.25;;;6.20;99.90;;;;;;5073010;28;20086;-89
2022/01/21 10:55:24;;;;;;;15.27;1.35;;;6.70;99.90;;;;;;5074776;28;20377;-90
2022/01/21 10:58:05;;;;;;;6.45;0.85;;;6.20;99.90;;;;;;5077237;28;20048;-88
2022/01/21 11:00:31;;;;;;;15.80;1.00;;;7.30;99.90;;;;;;5055291;28;20056;-87
2022/01/21 11:03:15;;;;;;;8.95;1.13;;;6.50;99.90;;;;;;5069554;28;20397;-88
2022/01/21 11:05:45;;;;;;;7.45;0.85;;;6.50;99.90;;;;;;5054653;28;20048;-89
2022/01/21 11:08:12;;;;;;;18.20;1.77;;;7.40;99.90;;;;;;5039957;28;20079;-88
2022/01/21 11:10:45;;;;;;;11.43;0.95;;;6.80;99.90;;;;;;5074863;28;20087;-87
2022/01/21 11:13:16;;;;;;;6.93;1.02;;;7.00;99.90;;;;;;5075228;28;20058;-87
2022/01/21 11:15:45;;;;;;;10.25;1.45;;;6.70;99.90;;;;;;5052191;28;20052;-85
2022/01/21 11:18:15;;;;;;;9.65;1.38;;;6.70;99.90;;;;;;5056685;28;20059;-85
2022/01/21 11:20:43;;;;;;;9.05;0.80;;;7.40;99.90;;;;;;5074692;28;20442;-85
2022/01/21 11:23:10;;;;;;;6.55;0.90;;;6.90;99.90;;;;;;5074619;28;20040;-85
2022/01/21 11:25:48;;;;;;;9.45;1.23;;;6.40;99.90;;;;;;5056565;28;20485;-86
2022/01/21 11:28:18;;;;;;;12.15;1.08;;;7.10;99.90;;;;;;5074332;28;20048;-85
2022/01/21 11:30:44;;;;;;;9.38;0.80;;;6.80;99.90;;;;;;5074293;28;20072;-86
2022/01/21 11:33:10;;;;;;;9.15;0.82;;;7.80;99.90;;;;;;5056132;28;20053;-85
2022/01/21 11:35:37;;;;;;;13.85;1.42;;;7.70;99.90;;;;;;5074453;28;20048;-84
2022/01/21 11:38:06;;;;;;;11.40;1.02;;;7.50;99.90;;;;;;5056581;28;20071;-85
2022/01/21 11:40:33;;;;;;;9.82;0.93;;;7.30;99.90;;;;;;5074389;28;20053;-83
2022/01/21 11:43:01;;;;;;;12.15;1.25;;;6.00;99.90;;;;;;5056440;28;20044;-84
2022/01/21 11:45:43;;;;;;;15.90;0.93;;;8.00;99.90;;;;;;5056068;28;20049;-84
2022/01/21 11:50:45;;;;;;;8.10;1.17;;;8.00;99.90;;;;;;5056196;28;20080;-85
2022/01/21 11:53:12;;;;;;;8.63;0.88;;;7.70;99.90;;;;;;5055987;28;20056;-85
2022/01/21 11:55:45;;;;;;;6.72;1.00;;;7.80;99.90;;;;;;5073769;28;20037;-85
2022/01/21 11:58:22;;;;;;;12.95;1.13;;;7.30;99.90;;;;;;5056189;28;20059;-84
2022/01/21 12:00:51;;;;;;;13.77;0.85;;;8.00;99.90;;;;;;5039623;28;20044;-85
2022/01/21 12:03:22;;;;;;;5.78;0.80;;;7.30;99.90;;;;;;5073836;28;20040;-85
2022/01/21 12:05:50;;;;;;;4.93;0.70;;;7.50;99.90;;;;;;5073976;28;20044;-85
2022/01/21 12:08:35;;;;;;;8.98;0.77;;;7.50;99.90;;;;;;5073563;28;20063;-83
2022/01/21 12:11:32;;;;;;;7.22;0.90;;;8.30;99.90;;;;;;5072519;28;20052;-85
2022/01/21 12:13:59;;;;;;;10.40;0.77;;;7.70;99.90;;;;;;5073371;28;20076;-85
2022/01/21 12:16:51;;;;;;;8.38;0.90;;;7.90;99.90;;;;;;5073252;28;20511;-85
2022/01/21 12:19:27;;;;;;;13.05;2.25;;;8.00;99.90;;;;;;5055582;28;20500;-84
2022/01/21 12:21:54;;;;;;;9.85;0.93;;;7.70;99.90;;;;;;5055507;28;20476;-85
2022/01/21 12:24:48;;;;;;;7.75;0.93;;;8.60;99.90;;;;;;5073426;28;20407;-84
2022/01/21 12:27:14;;;;;;;3.53;0.50;;;7.60;99.90;;;;;;5073058;28;20091;-84
2022/01/21 12:29:40;;;;;;;9.85;1.00;;;8.00;99.90;;;;;;5073310;28;20072;-85
2022/01/21 12:32:19;;;;;;;7.22;0.90;;;8.00;99.90;;;;;;5055034;28;20051;-86
2022/01/21 12:35:01;;;;;;;8.20;1.35;;;7.70;99.90;;;;;;5073039;28;20052;-85
2022/01/21 12:37:40;;;;;;;8.88;1.33;;;8.40;99.90;;;;;;5072878;28;20131;-85
2022/01/21 12:40:06;;;;;;;7.22;0.95;;;8.20;99.90;;;;;;5072231;28;20393;-84
2022/01/21 12:42:35;;;;;;;7.13;1.02;;;7.60;99.90;;;;;;5071403;28;20045;-85
2022/01/21 12:45:07;;;;;;;5.45;0.68;;;8.30;99.90;;;;;;5054501;28;20520;-85
2022/01/21 12:47:41;;;;;;;10.27;0.93;;;7.70;99.90;;;;;;5037623;28;20056;-85
2022/01/21 12:50:41;;;;;;;11.63;1.58;;;7.50;99.90;;;;;;5054571;28;20102;-85
2022/01/21 12:53:22;;;;;;;4.15;0.75;;;8.30;99.90;;;;;;5066248;28;20040;-90
2022/01/21 12:55:59;;;;;;;11.00;1.38;;;7.80;99.90;;;;;;5070195;28;20056;-84
2022/01/21 12:58:38;;;;;;;10.02;0.90;;;8.00;99.90;;;;;;5071742;28;20044;-89
2022/01/21 13:01:08;;;;;;;9.32;1.25;;;7.40;99.90;;;;;;5043505;28;20051;-86
2022/01/21 13:03:46;;;;;;;11.68;1.15;;;7.80;99.90;;;;;;5069417;28;20045;-86
2022/01/21 13:06:30;;;;;;;11.05;0.95;;;7.70;99.90;;;;;;5054018;28;20079;-86
2022/01/21 13:08:59;;;;;;;11.15;2.22;;;7.40;99.90;;;;;;5071116;28;20102;-86
2022/01/21 13:11:25;;;;;;;9.85;0.90;;;7.30;99.90;;;;;;5071097;28;20044;-87
2022/01/21 13:17:01;;;;;;;10.32;1.35;;;7.50;99.90;;;;;;5051500;28;20509;-87
2022/01/21 13:19:41;;;;;;;10.65;1.27;;;8.00;99.90;;;;;;5071225;28;20106;-85
2022/01/21 13:22:06;;;;;;;10.88;1.13;;;7.60;99.90;;;;;;5061569;28;20130;-87
2022/01/21 13:24:34;;;;;;;11.95;1.15;;;7.70;99.90;;;;;;5071472;28;20060;-85
2022/01/21 13:26:59;;;;;;;8.73;0.80;;;8.20;99.90;;;;;;5074071;28;20040;-85
2022/01/21 13:29:30;;;;;;;13.15;1.65;;;7.50;99.90;;;;;;5075412;28;20051;-92
2022/01/21 13:32:00;;;;;;;10.73;1.27;;;8.00;99.90;;;;;;5074880;28;20032;-85
2022/01/21 13:34:36;;;;;;;13.63;1.15;;;7.60;99.90;;;;;;5064437;28;20489;-84
2022/01/21 13:37:07;;;;;;;17.63;1.33;;;7.70;99.90;;;;;;5043927;28;20041;-86
2022/01/21 13:39:38;;;;;;;12.85;1.20;;;7.90;99.90;;;;;;5069676;28;20041;-88
2022/01/21 13:42:18;;;;;;;21.02;1.75;;;7.40;99.90;;;;;;5064008;28;20037;-86
2022/01/21 13:44:56;;;;;;;13.20;1.77;;;7.40;99.90;;;;;;5037793;28;20115;-88
2022/01/21 13:47:39;;;;;;;9.70;1.05;;;7.80;99.90;;;;;;5055421;28;20213;-86
2022/01/21 13:50:11;;;;;;;16.38;0.90;;;7.30;99.90;;;;;;5055735;28;20048;-84
2022/01/21 13:52:53;;;;;;;10.20;1.33;;;7.30;99.90;;;;;;5042865;28;20468;-92
2022/01/21 13:55:38;;;;;;;12.48;1.27;;;7.60;99.90;;;;;;5072103;28;20048;-91
2022/01/21 13:58:09;;;;;;;19.40;1.42;;;7.50;99.90;;;;;;5056508;28;20033;-85
2022/01/21 14:00:53;;;;;;;11.18;1.27;;;7.30;99.90;;;;;;5054380;28;20053;-85